CheckWX is a tool to help pilots better visualize weather data.  It is not intended as a substitute for an official pre-flight weather briefing.

05:35:15 UTC

CYYN METAR
Swift Current Airport
Swift Current, Canada
Current

35 mins ago

CYYN 200500Z AUTO 23016KT 9SM CLR M18/M23 A2965 RMK SLP106
Observed
Feb-20 @ 05:00 UTC
Wind
  • 230° at 16 KTS
Visibility
14,484 meters
Flight Rules
VFR
Cloud Levels
  • Clear skies
Temperature
-18°C / -0°F
Dewpoint
-23°C / -9°F
Humidity
65%
Altimeter
29.65" Hg
Pressure
1010.6 hPa
Previous

2 hours ago

CYYN 200400Z AUTO 22010KT 9SM CLR M17/M22 A2966 RMK SLP112
Observed
Feb-20 @ 04:00 UTC
Wind
  • 220° at 10 KTS
Visibility
14,484 meters
Flight Rules
VFR
Cloud Levels
  • Clear skies
Temperature
-17°C / 1°F
Dewpoint
-22°C / -8°F
Humidity
65%
Altimeter
29.66" Hg
Pressure
1011.2 hPa
Previous

3 hours ago

CYYN 200300Z AUTO 21013KT 9SM CLR M17/M22 A2967 RMK SLP118
Observed
Feb-20 @ 03:00 UTC
Wind
  • 210° at 13 KTS
Visibility
14,484 meters
Flight Rules
VFR
Cloud Levels
  • Clear skies
Temperature
-17°C / 1°F
Dewpoint
-22°C / -8°F
Humidity
65%
Altimeter
29.67" Hg
Pressure
1011.8 hPa